createdAt,value
2023-05-12T00:00:46.768Z,11.97
2023-05-12T00:02:47.247Z,12.00
2023-05-12T00:04:47.746Z,12.00
2023-05-12T00:06:48.072Z,12.02
2023-05-12T00:08:48.403Z,11.99
2023-05-12T00:10:48.850Z,11.99
2023-05-12T00:12:49.232Z,12.00
2023-05-12T00:14:49.683Z,12.03
2023-05-12T00:16:50.211Z,12.00
2023-05-12T00:18:50.698Z,12.03
2023-05-12T00:20:51.155Z,12.03
2023-05-12T00:22:51.535Z,12.00
2023-05-12T00:24:51.998Z,12.02
2023-05-12T00:26:52.450Z,11.99
2023-05-12T00:28:52.913Z,11.99
2023-05-12T00:30:53.318Z,11.97
2023-05-12T00:32:53.684Z,11.99
2023-05-12T00:34:54.105Z,12.03
2023-05-12T00:36:54.511Z,11.97
2023-05-12T00:38:54.915Z,12.00
2023-05-12T00:40:55.246Z,11.97
2023-05-12T00:42:55.651Z,11.91
2023-05-12T00:44:56.039Z,11.90
2023-05-12T00:46:56.416Z,11.94
2023-05-12T00:48:56.735Z,11.94
2023-05-12T00:50:57.092Z,11.91
2023-05-12T00:52:57.485Z,11.94
2023-05-12T00:55:01.003Z,11.95
2023-05-12T00:57:01.332Z,11.95
2023-05-12T00:59:01.713Z,11.95
2023-05-12T01:01:02.139Z,11.94
2023-05-12T01:03:02.523Z,11.95
2023-05-12T01:05:02.963Z,11.94
2023-05-12T01:07:03.307Z,11.95
2023-05-12T01:09:03.625Z,11.95
2023-05-12T01:11:04.071Z,11.97
2023-05-12T01:13:04.454Z,11.95
2023-05-12T01:15:04.935Z,11.99
2023-05-12T01:17:05.473Z,11.99
2023-05-12T01:19:05.814Z,11.94
2023-05-12T01:21:06.337Z,11.91
2023-05-12T01:23:06.797Z,11.91
2023-05-12T01:25:07.365Z,11.87
2023-05-12T01:27:07.710Z,11.88
2023-05-12T01:29:08.318Z,11.86
2023-05-12T01:31:08.719Z,11.90
2023-05-12T01:33:09.098Z,11.90
2023-05-12T01:35:09.512Z,11.91
2023-05-12T01:37:09.821Z,11.88
2023-05-12T01:39:15.033Z,11.91
2023-05-12T01:41:15.490Z,11.91
2023-05-12T01:43:15.898Z,11.91
2023-05-12T01:45:16.263Z,11.94
2023-05-12T01:47:16.682Z,11.95
2023-05-12T01:49:17.087Z,11.99
2023-05-12T01:51:22.280Z,11.95
2023-05-12T01:53:22.645Z,11.94
2023-05-12T01:55:23.012Z,11.91
2023-05-12T01:57:23.485Z,11.94
2023-05-12T01:59:23.886Z,11.90
2023-05-12T02:01:24.268Z,11.90
2023-05-12T02:03:24.677Z,11.90
2023-05-12T02:05:25.123Z,11.91
2023-05-12T02:07:25.550Z,11.94
2023-05-12T02:09:25.944Z,11.91
2023-05-12T02:11:26.291Z,11.97
2023-05-12T02:13:26.678Z,11.97
2023-05-12T02:15:27.041Z,11.94
2023-05-12T02:17:27.430Z,11.90
2023-05-12T02:19:27.830Z,11.90
2023-05-12T02:22:09.823Z,11.91
2023-05-12T02:24:10.167Z,11.88
2023-05-12T02:26:10.525Z,11.94
2023-05-12T02:28:10.890Z,11.94
2023-05-12T02:30:11.178Z,11.91
2023-05-12T02:32:11.515Z,11.91
2023-05-12T02:34:11.874Z,11.91
2023-05-12T02:36:12.441Z,11.91
2023-05-12T02:38:12.726Z,11.90
2023-05-12T02:40:13.027Z,11.88
2023-05-12T02:42:13.310Z,11.88
2023-05-12T02:44:13.668Z,11.90
2023-05-12T02:46:13.925Z,11.86
2023-05-12T02:48:14.246Z,11.90
2023-05-12T02:50:14.591Z,11.86
2023-05-12T02:52:14.942Z,11.84
2023-05-12T02:54:15.188Z,11.87
2023-05-12T02:56:15.542Z,11.86
2023-05-12T02:58:20.716Z,11.81
2023-05-12T03:00:21.175Z,11.84
2023-05-12T03:02:21.597Z,11.81
2023-05-12T03:04:22.064Z,11.80
2023-05-12T03:06:22.367Z,11.78
2023-05-12T03:08:22.663Z,11.77
2023-05-12T03:10:23.285Z,11.80
2023-05-12T03:12:23.718Z,11.78
2023-05-12T03:14:24.040Z,11.78
2023-05-12T03:16:24.368Z,11.77
2023-05-12T03:18:24.682Z,11.80
2023-05-12T03:20:24.938Z,11.77
2023-05-12T03:22:25.251Z,11.73
2023-05-12T03:24:25.633Z,11.75
2023-05-12T03:26:25.963Z,11.77
2023-05-12T03:28:26.202Z,11.75
2023-05-12T03:30:26.539Z,11.75
2023-05-12T03:32:26.921Z,11.75
2023-05-12T03:34:27.186Z,11.73
2023-05-12T03:36:27.536Z,11.75
2023-05-12T03:38:27.767Z,11.77
2023-05-12T03:40:28.092Z,11.77
2023-05-12T03:42:28.424Z,11.77
2023-05-12T03:44:28.706Z,11.75
2023-05-12T03:46:29.081Z,11.81
2023-05-12T03:48:29.511Z,11.84
2023-05-12T03:50:29.799Z,11.83
2023-05-12T03:52:30.271Z,11.87
2023-05-12T03:54:30.576Z,11.88
2023-05-12T03:56:30.881Z,11.88
2023-05-12T03:58:31.167Z,11.87
2023-05-12T04:00:31.483Z,11.88
2023-05-12T04:02:31.925Z,11.88
2023-05-12T04:04:32.265Z,11.94
2023-05-12T04:06:32.554Z,11.94
2023-05-12T04:08:32.846Z,11.91
2023-05-12T04:10:33.866Z,11.97
2023-05-12T04:12:34.187Z,11.94
2023-05-12T04:14:42.194Z,11.99
2023-05-12T04:16:40.241Z,12.00
2023-05-12T04:18:40.621Z,12.02
2023-05-12T04:20:40.979Z,11.99
2023-05-12T04:22:41.255Z,12.02
2023-05-12T04:24:41.530Z,12.04
2023-05-12T04:26:41.896Z,12.02
2023-05-12T04:28:42.128Z,12.03
2023-05-12T04:30:42.485Z,12.07
2023-05-12T04:32:42.930Z,12.06
2023-05-12T04:34:43.200Z,12.04
2023-05-12T04:36:43.479Z,12.06
2023-05-12T04:38:43.773Z,12.07
2023-05-12T04:40:44.088Z,12.07
2023-05-12T04:42:44.360Z,12.09
2023-05-12T04:44:49.568Z,12.10
2023-05-12T04:46:49.858Z,12.10
2023-05-12T04:48:50.129Z,12.15
2023-05-12T04:50:50.530Z,12.18
2023-05-12T04:52:50.810Z,12.21
2023-05-12T04:54:51.120Z,12.24
2023-05-12T04:56:51.388Z,12.27
2023-05-12T04:58:51.705Z,12.29
2023-05-12T05:00:52.079Z,12.29
2023-05-12T05:02:52.756Z,12.28
2023-05-12T05:04:53.374Z,12.32
2023-05-12T05:06:53.706Z,12.42
2023-05-12T05:08:54.073Z,12.45
2023-05-12T05:10:54.320Z,12.50
2023-05-12T05:12:54.629Z,12.54
2023-05-12T05:14:54.897Z,12.57
2023-05-12T05:16:55.202Z,12.61
2023-05-12T05:18:55.536Z,12.70
2023-05-12T05:20:58.558Z,12.72
2023-05-12T05:22:59.807Z,12.73
2023-05-12T05:25:00.858Z,12.79
2023-05-12T05:27:01.299Z,12.76
2023-05-12T05:29:01.620Z,12.70
2023-05-12T05:31:02.078Z,12.70
2023-05-12T05:33:02.488Z,12.70
2023-05-12T05:35:02.798Z,12.72
2023-05-12T05:37:03.131Z,12.72
2023-05-12T05:39:03.441Z,12.78
2023-05-12T05:41:03.745Z,12.76
2023-05-12T05:43:04.033Z,12.75
2023-05-12T05:45:04.380Z,12.75
2023-05-12T05:47:04.862Z,12.73
2023-05-12T05:49:05.225Z,12.78
2023-05-12T05:51:05.532Z,12.85
2023-05-12T05:53:05.823Z,12.91
2023-05-12T05:55:06.113Z,12.98
2023-05-12T05:57:06.537Z,12.95
2023-05-12T05:59:06.770Z,12.93
2023-05-12T06:01:07.104Z,12.94
2023-05-12T06:03:07.558Z,12.97
2023-05-12T06:05:14.231Z,13.03
2023-05-12T06:07:14.840Z,13.03
2023-05-12T06:09:15.112Z,13.01
2023-05-12T06:11:17.227Z,13.05
2023-05-12T06:13:20.655Z,13.09
2023-05-12T06:15:21.204Z,13.15
2023-05-12T06:17:26.205Z,13.19
2023-05-12T06:19:26.465Z,13.23
2023-05-12T06:21:26.892Z,13.25
2023-05-12T06:23:27.204Z,13.28
2023-05-12T06:25:27.494Z,13.19
2023-05-12T06:27:27.835Z,13.28
2023-05-12T06:29:28.209Z,13.38
2023-05-12T06:31:28.497Z,13.42
2023-05-12T06:33:28.836Z,13.49
2023-05-12T06:35:29.116Z,13.60
2023-05-12T06:37:29.389Z,13.67
2023-05-12T06:39:29.749Z,13.70
2023-05-12T06:41:30.058Z,13.67
2023-05-12T06:43:30.361Z,13.62
2023-05-12T06:45:30.724Z,13.65
2023-05-12T06:47:31.033Z,13.63
2023-05-12T06:49:31.322Z,13.63
2023-05-12T06:51:31.656Z,13.54
2023-05-12T06:53:31.918Z,13.53
2023-05-12T06:55:32.396Z,13.62
2023-05-12T06:57:32.678Z,13.54
2023-05-12T06:59:33.221Z,13.59
2023-05-12T07:01:33.666Z,13.56
2023-05-12T07:03:34.050Z,13.65
2023-05-12T07:05:34.427Z,13.70
2023-05-12T07:07:34.692Z,13.68
2023-05-12T07:09:34.975Z,13.68
2023-05-12T07:11:35.359Z,13.71
2023-05-12T07:13:35.665Z,13.70
2023-05-12T07:15:36.141Z,13.71
2023-05-12T07:17:36.806Z,13.60
2023-05-12T07:19:37.155Z,13.53
2023-05-12T07:21:37.556Z,13.59
2023-05-12T07:23:37.837Z,13.59
2023-05-12T07:25:38.277Z,13.63
2023-05-12T07:27:43.949Z,13.60
2023-05-12T07:29:44.266Z,13.68
2023-05-12T07:31:44.787Z,13.75
2023-05-12T07:33:45.243Z,13.78
2023-05-12T07:35:45.551Z,13.74
2023-05-12T07:37:45.810Z,13.77
2023-05-12T07:39:46.152Z,13.89
2023-05-12T07:41:46.550Z,13.87
2023-05-12T07:43:46.937Z,13.86
2023-05-12T07:45:47.262Z,13.83
2023-05-12T07:47:47.578Z,13.86
2023-05-12T07:49:47.925Z,13.90
2023-05-12T07:51:48.160Z,13.93
2023-05-12T07:53:48.538Z,13.89
2023-05-12T07:55:48.878Z,13.85
2023-05-12T07:57:49.180Z,13.77
2023-05-12T07:59:49.552Z,13.79
2023-05-12T08:01:49.894Z,13.75
2023-05-12T08:03:50.288Z,13.72
2023-05-12T08:05:55.420Z,13.75
2023-05-12T08:07:55.753Z,13.83
2023-05-12T08:09:56.097Z,13.92
2023-05-12T08:11:56.405Z,14.11
2023-05-12T08:13:56.766Z,14.35
2023-05-12T08:15:57.073Z,14.62
2023-05-12T08:17:57.431Z,14.82
2023-05-12T08:19:57.771Z,14.99
2023-05-12T08:21:58.139Z,15.11
2023-05-12T08:23:58.400Z,15.14
2023-05-12T08:25:58.745Z,15.28
2023-05-12T08:27:59.095Z,15.29
2023-05-12T08:29:59.391Z,15.39
2023-05-12T08:31:59.680Z,15.49
2023-05-12T08:34:09.604Z,15.47
2023-05-12T08:36:05.290Z,15.46
2023-05-12T08:38:05.588Z,15.55
2023-05-12T08:40:05.909Z,15.65
2023-05-12T08:42:06.239Z,15.62
2023-05-12T08:44:06.548Z,15.52
2023-05-12T08:46:06.875Z,15.43
2023-05-12T08:48:07.187Z,15.46
2023-05-12T08:50:07.512Z,15.46
2023-05-12T08:52:07.909Z,15.47
2023-05-12T08:54:08.233Z,15.39
2023-05-12T08:58:11.772Z,15.29
2023-05-12T09:00:12.120Z,15.33
2023-05-12T09:02:12.508Z,15.57
2023-05-12T09:04:12.781Z,15.54
2023-05-12T09:06:13.117Z,15.59
2023-05-12T09:08:13.448Z,15.54
2023-05-12T09:10:25.959Z,15.55
2023-05-12T09:12:19.039Z,15.64
2023-05-12T09:14:19.365Z,15.83
2023-05-12T09:16:24.599Z,15.68
2023-05-12T09:18:24.955Z,15.57
2023-05-12T09:20:31.483Z,15.44
2023-05-12T09:22:30.722Z,15.43
2023-05-12T09:24:31.038Z,15.31
2023-05-12T09:26:31.358Z,15.17
2023-05-12T09:28:31.627Z,15.27
2023-05-12T09:30:31.900Z,15.27
2023-05-12T09:32:33.036Z,15.33
2023-05-12T09:34:33.403Z,15.36
2023-05-12T09:36:34.025Z,15.52
2023-05-12T09:38:34.381Z,15.54
2023-05-12T09:40:34.681Z,15.58
2023-05-12T09:42:35.054Z,15.70
2023-05-12T09:44:35.278Z,15.68
2023-05-12T09:46:35.748Z,15.77
2023-05-12T09:48:36.050Z,15.86
2023-05-12T09:50:46.536Z,15.92
2023-05-12T09:52:41.576Z,15.94
2023-05-12T09:54:41.856Z,16.05
2023-05-12T09:56:42.184Z,16.15
2023-05-12T09:58:42.532Z,16.17
2023-05-12T10:02:46.776Z,16.31
2023-05-12T10:04:47.155Z,16.36
2023-05-12T10:06:47.448Z,16.56
2023-05-12T10:08:47.756Z,16.65
2023-05-12T10:10:48.030Z,16.90
2023-05-12T10:12:48.369Z,16.97
2023-05-12T10:14:48.717Z,16.86
2023-05-12T10:16:49.052Z,16.76
2023-05-12T10:18:49.405Z,16.76
2023-05-12T10:20:49.706Z,16.64
2023-05-12T10:22:50.047Z,16.60
2023-05-12T10:24:50.336Z,16.53
2023-05-12T10:26:50.741Z,16.33
2023-05-12T10:28:51.156Z,16.12
2023-05-12T10:30:51.588Z,16.01
2023-05-12T10:32:51.865Z,15.90
2023-05-12T10:34:52.230Z,15.84
2023-05-12T10:36:52.588Z,15.80
2023-05-12T10:38:52.889Z,15.84
2023-05-12T10:40:53.189Z,15.80
2023-05-12T10:42:53.508Z,15.88
2023-05-12T10:44:53.819Z,16.08
2023-05-12T10:46:54.155Z,15.97
2023-05-12T10:48:54.478Z,15.84
2023-05-12T10:50:54.762Z,15.62
2023-05-12T10:52:55.061Z,15.52
2023-05-12T10:54:55.424Z,15.31
2023-05-12T10:56:55.969Z,15.27
2023-05-12T10:59:01.091Z,15.33
2023-05-12T11:01:02.066Z,15.44
2023-05-12T11:03:08.155Z,15.58
2023-05-12T11:05:08.501Z,15.75
2023-05-12T11:07:09.618Z,15.92
2023-05-12T11:09:11.068Z,16.09
2023-05-12T11:11:11.584Z,16.26
2023-05-12T11:13:11.855Z,16.47
2023-05-12T11:15:12.264Z,16.74
2023-05-12T11:17:12.519Z,17.06
2023-05-12T11:19:12.895Z,17.34
2023-05-12T11:21:13.207Z,17.51
2023-05-12T11:23:13.490Z,17.82
2023-05-12T11:25:13.792Z,17.98
2023-05-12T11:27:14.165Z,17.95
2023-05-12T11:29:14.491Z,18.00
2023-05-12T11:31:14.782Z,18.28
2023-05-12T11:33:15.142Z,18.29
2023-05-12T11:35:15.508Z,18.31
2023-05-12T11:37:15.802Z,18.31
2023-05-12T11:39:16.065Z,18.25
2023-05-12T11:41:16.439Z,18.19
2023-05-12T11:43:16.666Z,18.28
2023-05-12T11:45:16.970Z,18.53
2023-05-12T11:47:17.330Z,18.88
2023-05-12T11:49:17.620Z,18.98
2023-05-12T11:51:18.021Z,18.77
2023-05-12T11:53:18.278Z,18.90
2023-05-12T11:55:18.710Z,18.80
2023-05-12T11:57:19.070Z,18.71
2023-05-12T11:59:19.390Z,18.45
2023-05-12T12:01:19.718Z,18.49
2023-05-12T12:03:20.196Z,18.31
2023-05-12T12:05:20.793Z,18.45
2023-05-12T12:07:21.285Z,18.55
2023-05-12T12:09:21.543Z,18.62
2023-05-12T12:11:21.905Z,18.77
2023-05-12T12:13:22.179Z,18.78
2023-05-12T12:15:22.546Z,18.60
2023-05-12T12:17:22.920Z,18.55
2023-05-12T12:19:23.256Z,18.55
2023-05-12T12:21:23.554Z,18.50
2023-05-12T12:23:23.837Z,18.62
2023-05-12T12:25:24.133Z,18.71
2023-05-12T12:27:24.454Z,18.95
2023-05-12T12:29:24.711Z,19.08
2023-05-12T12:31:25.122Z,19.26
2023-05-12T12:33:25.438Z,19.31
2023-05-12T12:35:25.770Z,19.31
2023-05-12T12:37:26.135Z,19.12
2023-05-12T12:39:26.596Z,19.02
2023-05-12T12:41:26.932Z,18.78
2023-05-12T12:43:27.256Z,18.53
2023-05-12T12:45:27.549Z,18.35
2023-05-12T12:47:27.871Z,18.28
2023-05-12T12:49:28.154Z,18.35
2023-05-12T12:51:38.495Z,18.34
2023-05-12T12:53:33.630Z,18.23
2023-05-12T12:55:34.026Z,18.35
2023-05-12T12:57:34.302Z,18.47
2023-05-12T12:59:34.617Z,18.41
2023-05-12T13:01:35.284Z,18.35
2023-05-12T13:03:35.899Z,18.26
2023-05-12T13:05:36.239Z,18.07
2023-05-12T13:07:36.568Z,18.03
2023-05-12T13:09:36.888Z,17.97
2023-05-12T13:11:37.196Z,17.92
2023-05-12T13:13:37.544Z,17.87
2023-05-12T13:15:37.853Z,17.83
2023-05-12T13:17:38.179Z,17.67
2023-05-12T13:19:38.527Z,17.71
2023-05-12T13:21:38.784Z,17.74
2023-05-12T13:23:40.026Z,17.71
2023-05-12T13:25:40.258Z,17.76
2023-05-12T13:27:40.608Z,17.80
2023-05-12T13:29:40.869Z,17.80
2023-05-12T13:31:41.218Z,17.87
2023-05-12T13:33:41.524Z,17.86
2023-05-12T13:35:41.789Z,17.83
2023-05-12T13:37:42.095Z,17.82
2023-05-12T13:39:42.398Z,17.76
2023-05-12T13:41:42.715Z,17.64
2023-05-12T13:43:43.119Z,17.57
2023-05-12T13:45:43.370Z,17.65
2023-05-12T13:47:43.746Z,17.68
2023-05-12T13:49:43.996Z,17.78
2023-05-12T13:51:44.370Z,17.85
2023-05-12T13:53:44.685Z,17.87
2023-05-12T13:55:45.004Z,17.95
2023-05-12T13:57:45.278Z,17.86
2023-05-12T13:59:45.595Z,17.79
2023-05-12T14:01:45.930Z,17.72
2023-05-12T14:03:46.243Z,17.74
2023-05-12T14:05:46.514Z,17.74
2023-05-12T14:07:46.801Z,17.76
2023-05-12T14:09:47.112Z,17.78
2023-05-12T14:11:47.433Z,17.79
2023-05-12T14:13:47.793Z,17.70
2023-05-12T14:15:49.832Z,17.76
2023-05-12T14:17:50.723Z,17.78
2023-05-12T14:19:55.789Z,17.72
2023-05-12T14:21:56.182Z,17.71
2023-05-12T14:23:56.506Z,17.65
2023-05-12T14:25:56.823Z,17.52
2023-05-12T14:27:57.084Z,17.49
2023-05-12T14:29:57.532Z,17.48
2023-05-12T14:31:58.002Z,17.44
2023-05-12T14:33:58.255Z,17.44
2023-05-12T14:36:06.508Z,17.49
2023-05-12T14:38:03.773Z,17.52
2023-05-12T14:40:04.119Z,17.63
2023-05-12T14:42:04.491Z,17.68
2023-05-12T14:44:04.768Z,17.67
2023-05-12T14:46:05.094Z,17.74
2023-05-12T14:48:05.467Z,17.72
2023-05-12T14:50:05.741Z,17.67
2023-05-12T14:52:06.071Z,17.68
2023-05-12T14:54:12.569Z,17.64
2023-05-12T14:56:11.560Z,17.49
2023-05-12T14:58:11.943Z,17.41
2023-05-12T15:00:12.295Z,17.45
2023-05-12T15:02:12.696Z,17.49
2023-05-12T15:04:13.053Z,17.63
2023-05-12T15:06:14.255Z,17.68
2023-05-12T15:08:15.501Z,17.83
2023-05-12T15:10:15.792Z,17.78
2023-05-12T15:12:16.964Z,17.80
2023-05-12T15:14:17.997Z,17.80
2023-05-12T15:16:18.278Z,17.83
2023-05-12T15:18:18.639Z,17.86
2023-05-12T15:20:18.968Z,17.87
2023-05-12T15:22:19.833Z,17.85
2023-05-12T15:24:20.162Z,17.90
2023-05-12T15:26:32.774Z,17.78
2023-05-12T15:28:27.201Z,17.72
2023-05-12T15:31:09.134Z,17.56
2023-05-12T15:33:09.450Z,17.45
2023-05-12T15:35:09.732Z,17.38
2023-05-12T15:37:10.068Z,17.31
2023-05-12T15:39:10.400Z,17.31
2023-05-12T15:41:10.714Z,17.26
2023-05-12T15:43:11.000Z,17.23
2023-05-12T15:45:11.459Z,17.16
2023-05-12T15:47:11.818Z,17.12
2023-05-12T15:49:12.075Z,17.08
2023-05-12T15:51:12.386Z,17.08
2023-05-12T15:53:12.702Z,17.09
2023-05-12T15:55:12.955Z,17.16
2023-05-12T15:57:13.272Z,17.26
2023-05-12T15:59:13.572Z,17.41
2023-05-12T16:01:13.888Z,17.54
2023-05-12T16:03:14.227Z,17.65
2023-05-12T16:05:14.528Z,17.71
2023-05-12T16:07:15.082Z,17.72
2023-05-12T16:09:15.541Z,17.64
2023-05-12T16:11:15.883Z,17.60
2023-05-12T16:13:16.578Z,17.63
2023-05-12T16:15:17.102Z,17.63
2023-05-12T16:17:17.714Z,17.51
2023-05-12T16:19:18.178Z,17.38
2023-05-12T16:21:18.504Z,17.30
2023-05-12T16:23:19.672Z,17.22
2023-05-12T16:25:20.308Z,17.23
2023-05-12T16:27:20.730Z,17.16
2023-05-12T16:29:21.107Z,17.16
2023-05-12T16:31:21.417Z,17.24
2023-05-12T16:33:22.082Z,17.16
2023-05-12T16:35:22.509Z,17.27
2023-05-12T16:37:22.960Z,17.36
2023-05-12T16:39:23.292Z,17.34
2023-05-12T16:41:23.587Z,17.23
2023-05-12T16:43:23.905Z,17.24
2023-05-12T16:45:24.262Z,17.27
2023-05-12T16:47:24.553Z,17.27
2023-05-12T16:49:24.890Z,17.24
2023-05-12T16:51:25.182Z,17.27
2023-05-12T16:53:25.521Z,17.41
2023-05-12T16:55:25.871Z,17.41
2023-05-12T16:57:26.135Z,17.45
2023-05-12T16:59:26.470Z,17.38
2023-05-12T17:01:26.824Z,17.36
2023-05-12T17:03:27.242Z,17.29
2023-05-12T17:05:27.558Z,17.22
2023-05-12T17:07:27.924Z,17.14
2023-05-12T17:09:28.209Z,17.09
2023-05-12T17:11:28.819Z,17.09
2023-05-12T17:13:29.512Z,17.05
2023-05-12T17:15:29.816Z,16.91
2023-05-12T17:17:30.535Z,16.84
2023-05-12T17:19:31.045Z,16.84
2023-05-12T17:21:31.608Z,16.78
2023-05-12T17:23:31.868Z,16.74
2023-05-12T17:25:32.246Z,16.71
2023-05-12T17:27:32.508Z,16.65
2023-05-12T17:29:32.813Z,16.60
2023-05-12T17:31:33.161Z,16.56
2023-05-12T17:33:33.490Z,16.51
2023-05-12T17:35:33.765Z,16.46
2023-05-12T17:37:34.158Z,16.38
2023-05-12T17:39:34.423Z,16.38
2023-05-12T17:41:34.734Z,16.33
2023-05-12T17:43:34.998Z,16.36
2023-05-12T17:45:35.399Z,16.28
2023-05-12T17:47:35.727Z,16.16
2023-05-12T17:49:36.019Z,16.12
2023-05-12T17:51:36.565Z,16.08
2023-05-12T17:53:36.815Z,16.00
2023-05-12T17:55:37.106Z,15.94
2023-05-12T17:57:37.470Z,15.91
2023-05-12T17:59:37.827Z,15.82
2023-05-12T18:01:38.145Z,15.80
2023-05-12T18:03:38.568Z,15.72
2023-05-12T18:05:38.898Z,15.68
2023-05-12T18:07:39.219Z,15.57
2023-05-12T18:09:39.673Z,15.52
2023-05-12T18:11:39.938Z,15.44
2023-05-12T18:13:40.234Z,15.42
2023-05-12T18:15:40.555Z,15.37
2023-05-12T18:17:41.281Z,15.35
2023-05-12T18:19:41.931Z,15.33
2023-05-12T18:21:42.182Z,15.27
2023-05-12T18:23:42.528Z,15.25
2023-05-12T18:25:42.870Z,15.25
2023-05-12T18:27:43.156Z,15.27
2023-05-12T18:29:43.452Z,15.29
2023-05-12T18:31:43.963Z,15.28
2023-05-12T18:33:44.414Z,15.27
2023-05-12T18:35:44.823Z,15.28
2023-05-12T18:37:45.163Z,15.27
2023-05-12T18:39:45.438Z,15.22
2023-05-12T18:41:45.750Z,15.17
2023-05-12T18:43:46.044Z,15.15
2023-05-12T18:45:46.332Z,15.14
2023-05-12T18:47:46.702Z,15.11
2023-05-12T18:49:47.138Z,15.09
2023-05-12T18:51:47.483Z,15.07
2023-05-12T18:53:47.765Z,15.06
2023-05-12T18:55:48.242Z,15.04
2023-05-12T18:57:48.505Z,15.02
2023-05-12T18:59:48.852Z,15.03
2023-05-12T19:01:49.194Z,15.03
2023-05-12T19:03:49.498Z,14.99
2023-05-12T19:05:49.892Z,14.96
2023-05-12T19:07:50.194Z,14.91
2023-05-12T19:09:50.522Z,14.85
2023-05-12T19:11:51.070Z,14.81
2023-05-12T19:13:51.337Z,14.81
2023-05-12T19:15:51.669Z,14.73
2023-05-12T19:17:52.095Z,14.73
2023-05-12T19:19:52.437Z,14.72
2023-05-12T19:21:52.756Z,14.69
2023-05-12T19:23:53.040Z,14.62
2023-05-12T19:25:58.563Z,14.65
2023-05-12T19:27:58.924Z,14.58
2023-05-12T19:29:59.283Z,14.51
2023-05-12T19:31:59.726Z,14.50
2023-05-12T19:34:00.064Z,14.50
2023-05-12T19:36:00.369Z,14.47
2023-05-12T19:38:00.726Z,14.50
2023-05-12T19:40:01.081Z,14.47
2023-05-12T19:42:01.365Z,14.48
2023-05-12T19:44:02.118Z,14.45
2023-05-12T19:46:02.674Z,14.43
2023-05-12T19:48:03.213Z,14.37
2023-05-12T19:50:08.232Z,14.37
2023-05-12T19:52:08.775Z,14.37
2023-05-12T19:54:09.286Z,14.37
2023-05-12T19:56:09.767Z,14.40
2023-05-12T19:58:10.078Z,14.37
2023-05-12T20:00:10.376Z,14.36
2023-05-12T20:02:10.752Z,14.33
2023-05-12T20:04:11.068Z,14.32
2023-05-12T20:06:11.499Z,14.30
2023-05-12T20:08:11.992Z,14.30
2023-05-12T20:10:12.536Z,14.32
2023-05-12T20:12:12.883Z,14.35
2023-05-12T20:14:13.219Z,14.35
2023-05-12T20:16:13.507Z,14.32
2023-05-12T20:18:14.587Z,14.28
2023-05-12T20:20:15.103Z,14.20
2023-05-12T20:22:15.914Z,14.15
2023-05-12T20:24:16.163Z,14.14
2023-05-12T20:26:17.380Z,14.10
2023-05-12T20:28:17.660Z,14.11
2023-05-12T20:30:18.193Z,14.04
2023-05-12T20:32:18.502Z,14.03
2023-05-12T20:34:18.882Z,13.97
2023-05-12T20:36:19.190Z,13.90
2023-05-12T20:38:19.476Z,13.89
2023-05-12T20:40:20.114Z,13.89
2023-05-12T20:42:20.420Z,13.83
2023-05-12T20:44:20.823Z,13.79
2023-05-12T20:46:21.227Z,13.74
2023-05-12T20:48:26.288Z,13.70
2023-05-12T20:50:26.619Z,13.68
2023-05-12T20:52:26.932Z,13.63
2023-05-12T20:54:27.300Z,13.54
2023-05-12T20:56:27.580Z,13.50
2023-05-12T20:58:28.228Z,13.41
2023-05-12T21:00:28.573Z,13.35
2023-05-12T21:02:29.373Z,13.31
2023-05-12T21:04:29.852Z,13.25
2023-05-12T21:06:31.862Z,13.23
2023-05-12T21:08:32.293Z,13.22
2023-05-12T21:10:33.877Z,13.19
2023-05-12T21:12:34.243Z,13.22
2023-05-12T21:14:34.518Z,13.23
2023-05-12T21:16:34.792Z,13.25
2023-05-12T21:18:35.122Z,13.27
2023-05-12T21:20:35.442Z,13.28
2023-05-12T21:22:35.715Z,13.25
2023-05-12T21:24:36.069Z,13.28
2023-05-12T21:26:36.354Z,13.23
2023-05-12T21:28:36.713Z,13.20
2023-05-12T21:30:37.022Z,13.23
2023-05-12T21:32:37.313Z,13.20
2023-05-12T21:34:37.616Z,13.16
2023-05-12T21:36:37.883Z,13.18
2023-05-12T21:38:38.226Z,13.19
2023-05-12T21:40:38.529Z,13.22
2023-05-12T21:42:38.863Z,13.23
2023-05-12T21:44:39.126Z,13.28
2023-05-12T21:46:39.750Z,13.31
2023-05-12T21:48:40.230Z,13.31
2023-05-12T21:50:40.505Z,13.31
2023-05-12T21:52:40.796Z,13.28
2023-05-12T21:54:41.111Z,13.27
2023-05-12T21:56:41.507Z,13.18
2023-05-12T21:58:42.179Z,13.16
2023-05-12T22:00:42.837Z,13.08
2023-05-12T22:02:43.451Z,13.03
2023-05-12T22:04:44.539Z,12.98
2023-05-12T22:06:45.054Z,12.95
2023-05-12T22:08:45.524Z,12.95
2023-05-12T22:10:46.213Z,12.94
2023-05-12T22:12:46.629Z,12.94
2023-05-12T22:14:46.947Z,12.91
2023-05-12T22:16:47.342Z,12.93
2023-05-12T22:18:49.161Z,12.95
2023-05-12T22:20:49.509Z,12.95
2023-05-12T22:22:49.917Z,12.91
2023-05-12T22:24:50.295Z,12.97
2023-05-12T22:26:50.726Z,12.94
2023-05-12T22:28:51.015Z,12.97
2023-05-12T22:30:51.502Z,13.00
2023-05-12T22:32:51.910Z,13.01
2023-05-12T22:34:52.222Z,13.03
2023-05-12T22:36:52.666Z,13.01
2023-05-12T22:38:52.913Z,13.00
2023-05-12T22:40:53.202Z,12.95
2023-05-12T22:42:53.733Z,12.95
2023-05-12T22:44:53.983Z,12.95
2023-05-12T22:46:54.914Z,12.93
2023-05-12T22:48:55.251Z,12.94
2023-05-12T22:50:55.567Z,12.91
2023-05-12T22:52:55.822Z,12.90
2023-05-12T22:54:56.186Z,12.83
2023-05-12T22:56:56.430Z,12.82
2023-05-12T22:58:56.742Z,12.78
2023-05-12T23:00:57.037Z,12.70
2023-05-12T23:02:57.482Z,12.64
2023-05-12T23:04:57.762Z,12.55
2023-05-12T23:06:58.077Z,12.53
2023-05-12T23:08:58.356Z,12.46
2023-05-12T23:10:58.768Z,12.36
2023-05-12T23:12:59.147Z,12.31
2023-05-12T23:14:59.856Z,12.29
2023-05-12T23:17:00.267Z,12.24
2023-05-12T23:19:00.697Z,12.21
2023-05-12T23:21:00.976Z,12.15
2023-05-12T23:23:01.326Z,12.10
2023-05-12T23:25:01.565Z,12.06
2023-05-12T23:27:01.880Z,12.03
2023-05-12T23:29:02.293Z,11.97
2023-05-12T23:31:02.568Z,11.90
2023-05-12T23:33:02.902Z,11.90
2023-05-12T23:35:03.318Z,11.97
2023-05-12T23:37:03.587Z,12.02
2023-05-12T23:39:03.905Z,12.04
2023-05-12T23:41:04.224Z,12.02
2023-05-12T23:43:04.535Z,11.97
2023-05-12T23:45:04.831Z,11.97
2023-05-12T23:47:05.184Z,11.87
2023-05-12T23:49:05.525Z,11.80
2023-05-12T23:51:05.875Z,11.73
2023-05-12T23:53:06.149Z,11.68
2023-05-12T23:55:06.889Z,11.62
2023-05-12T23:57:07.240Z,11.52
2023-05-12T23:59:07.565Z,11.48
